Time;durP1;ratioP1;P1;durP2;ratioP2;P2;SDS_P1;SDS_P2;PMS_P1;PMS_P2;Temp;Humidity;BMP_temperature;BMP_pressure;BME280_temperature;BME280_humidity;BME280_pressure;Samples;Min_cycle;Max_cycle;Signal;HPM_P1;HPM_P2
2021/10/23 00:00:16;;;;;;;3.60;2.10;;;;;;;6.34;70.62;99524.70;227345;1198;139056;-68
2021/10/23 00:06:18;;;;;;;1.80;1.50;;;;;;;6.33;70.70;99541.55;226625;1198;138501;-69
2021/10/23 00:11:28;;;;;;;2.30;2.10;;;;;;;6.32;70.69;99552.73;226279;1200;140057;-68
2021/10/23 00:16:56;;;;;;;3.50;3.20;;;;;;;6.30;70.60;99561.08;225989;1198;139995;-68
2021/10/23 00:22:09;;;;;;;1.80;1.70;;;;;;;6.29;70.70;99569.80;226441;1198;139541;-68
2021/10/23 00:27:14;;;;;;;3.10;1.50;;;;;;;6.31;71.10;99579.00;226181;1200;140302;-70
2021/10/23 00:32:38;;;;;;;3.50;1.90;;;;;;;6.29;70.92;99584.02;226680;1198;140249;-68
2021/10/23 00:37:47;;;;;;;1.60;1.50;;;;;;;6.26;70.74;99593.67;226539;1198;139742;-68
2021/10/23 00:42:53;;;;;;;3.40;1.30;;;;;;;6.24;70.73;99600.56;227225;1198;140517;-68
2021/10/23 00:48:25;;;;;;;3.20;1.50;;;;;;;6.18;70.53;99596.52;227276;1198;139767;-67
2021/10/23 00:53:33;;;;;;;1.60;1.50;;;;;;;6.09;70.08;99600.70;226236;1198;140869;-69
2021/10/23 00:58:38;;;;;;;;;;;;;;;5.99;70.45;99593.25;226998;1199;141249;-68
2021/10/23 01:03:52;;;;;;;1.80;1.50;;;;;;;5.90;70.56;99604.86;227259;1199;125473;-68
2021/10/23 01:09:01;;;;;;;8.80;1.70;;;;;;;5.89;70.44;99608.60;227606;1198;139534;-67
2021/10/23 01:14:04;;;;;;;;;;;;;;;5.91;70.61;99617.27;226641;1198;139409;-68
2021/10/23 01:19:23;;;;;;;2.50;1.70;;;;;;;5.94;70.81;99625.29;228025;1198;126950;-69
2021/10/23 01:24:44;;;;;;;6.60;1.80;;;;;;;6.00;70.58;99628.45;226316;1199;140476;-70
2021/10/23 01:30:05;;;;;;;2.70;1.40;;;;;;;5.99;70.75;99631.67;227269;1200;139424;-70
2021/10/23 01:35:30;;;;;;;;;;;;;;;;;;;;;
2021/10/23 01:40:41;;;;;;;5.90;2.70;;;;;;;6.01;70.58;99640.99;228059;1198;139123;-68
2021/10/23 01:46:08;;;;;;;;;;;;;;;;;;;;;
2021/10/23 01:51:13;;;;;;;0.80;0.80;;;;;;;6.04;70.59;99652.84;228946;1198;139840;-69
2021/10/23 01:56:18;;;;;;;7.20;1.60;;;;;;;6.05;70.30;99656.25;228817;1198;138833;-69
2021/10/23 02:02:05;;;;;;;;;;;;;;;;;;;;;
2021/10/23 02:07:13;;;;;;;1.50;1.40;;;;;;;5.97;70.28;99667.14;227417;1198;138732;-70
2021/10/23 02:12:50;;;;;;;2.20;1.70;;;;;;;5.88;70.41;99676.64;226882;1198;140378;-69
2021/10/23 02:18:01;;;;;;;1.90;1.30;;;;;;;5.80;70.63;99690.12;226627;1199;219767;-69
2021/10/23 02:23:05;;;;;;;3.80;2.00;;;;;;;5.73;70.47;99701.23;227154;1198;139809;-69
2021/10/23 02:28:22;;;;;;;2.50;2.10;;;;;;;5.77;70.96;99703.67;226757;1200;139204;-68
2021/10/23 02:33:33;;;;;;;1.50;1.20;;;;;;;5.81;70.87;99702.69;226227;1198;138816;-68
2021/10/23 02:38:48;;;;;;;2.80;1.60;;;;;;;5.81;70.91;99703.22;226312;1198;138867;-68
2021/10/23 02:44:23;;;;;;;2.50;1.10;;;;;;;5.83;71.19;99711.67;226671;1198;139901;-68
2021/10/23 02:49:56;;;;;;;8.70;2.10;;;;;;;5.84;71.14;99722.45;227373;1198;139122;-68
2021/10/23 02:55:14;;;;;;;2.80;1.60;;;;;;;5.84;70.86;99724.58;226750;1198;139579;-68
2021/10/23 03:00:21;;;;;;;1.40;1.30;;;;;;;5.86;71.24;99729.63;226083;1198;139291;-68
2021/10/23 03:05:47;;;;;;;;;;;;;;;;;;;;;
2021/10/23 03:10:51;;;;;;;4.30;1.80;;;;;;;5.88;71.14;99735.95;227867;1198;140251;-69
2021/10/23 03:15:58;;;;;;;13.20;2.00;;;;;;;5.93;71.19;99744.10;226489;1198;139027;-68
2021/10/23 03:21:04;;;;;;;2.70;2.10;;;;;;;5.99;71.11;99751.27;226710;1198;139915;-68
2021/10/23 03:26:26;;;;;;;;;;;;;;;;;;;;;
2021/10/23 03:31:52;;;;;;;3.20;1.50;;;;;;;5.97;71.01;99755.46;227589;1198;139074;-69
2021/10/23 03:36:59;;;;;;;7.00;2.20;;;;;;;5.99;70.74;99751.97;226102;1198;139230;-68
2021/10/23 03:42:18;;;;;;;6.10;2.90;;;;;;;5.99;70.84;99756.73;228835;1198;139173;-69
2021/10/23 03:47:28;;;;;;;2.20;1.80;;;;;;;5.97;70.82;99760.64;226314;1198;139696;-67
2021/10/23 03:52:35;;;;;;;7.00;2.00;;;;;;;5.99;70.95;99764.75;226257;1198;139561;-68
2021/10/23 03:57:47;;;;;;;4.10;2.10;;;;;;;5.99;71.24;99775.25;229098;1198;140097;-68
2021/10/23 04:02:52;;;;;;;5.50;2.30;;;;;;;6.00;71.14;99777.48;229228;1198;140180;-70
2021/10/23 04:08:04;;;;;;;2.00;1.80;;;;;;;6.03;70.88;99786.73;228111;1198;140045;-68
2021/10/23 04:13:45;;;;;;;;;;;;;;;;;;;;;
2021/10/23 04:18:50;;;;;;;3.50;2.50;;;;;;;6.02;71.02;99789.13;226361;1199;139408;-68
2021/10/23 04:24:21;;;;;;;8.40;3.10;;;;;;;6.04;71.16;99794.55;227048;1198;140352;-68
2021/10/23 04:29:37;;;;;;;;;;;;;;;;;;;;;
2021/10/23 04:35:24;;;;;;;;;;;;;;;6.07;71.05;99802.81;226641;1198;139011;-68
2021/10/23 04:40:28;;;;;;;4.70;2.30;;;;;;;6.01;71.32;99809.81;226974;1198;125059;-68
2021/10/23 04:46:10;;;;;;;4.30;2.30;;;;;;;6.03;70.87;99807.20;226838;1198;139230;-68
2021/10/23 04:51:49;;;;;;;6.90;2.30;;;;;;;6.00;71.06;99822.11;226110;1198;141608;-68
2021/10/23 04:56:57;;;;;;;4.00;1.60;;;;;;;5.95;71.46;99830.11;226437;1198;139042;-68
2021/10/23 05:02:13;;;;;;;;;;;;;;;;;;;;;
2021/10/23 05:07:45;;;;;;;;;;;;;;;;;;;;;
2021/10/23 05:13:14;;;;;;;4.40;2.70;;;;;;;5.86;70.92;99833.94;226136;1200;139312;-68
2021/10/23 05:18:48;;;;;;;5.80;3.30;;;;;;;5.80;71.38;99843.98;226188;1198;139179;-69
2021/10/23 05:23:58;;;;;;;7.30;3.10;;;;;;;5.80;71.65;99850.23;227395;1199;139503;-69
2021/10/23 05:29:08;;;;;;;9.80;3.60;;;;;;;5.78;71.37;99853.92;227923;1198;139023;-68
2021/10/23 05:34:12;;;;;;;7.60;3.60;;;;;;;5.82;71.37;99870.19;226430;1199;139896;-69
2021/10/23 05:39:17;;;;;;;3.50;2.30;;;;;;;5.83;71.53;99870.02;228990;1199;139732;-70
2021/10/23 05:44:23;;;;;;;7.40;3.00;;;;;;;5.84;71.50;99871.48;229164;1199;139502;-69
2021/10/23 05:50:17;;;;;;;;;;;;;;;;;;;;;
2021/10/23 05:55:22;;;;;;;9.40;3.90;;;;;;;5.90;71.51;99892.41;229120;1199;139224;-69
2021/10/23 06:01:00;;;;;;;;;;;;;;;;;;;;;
2021/10/23 06:06:17;;;;;;;;;;;;;;;;;;;;;
2021/10/23 06:11:25;;;;;;;;;;;;;;;5.89;72.14;99903.11;227699;1200;139680;-67
2021/10/23 06:16:41;;;;;;;7.10;3.00;;;;;;;5.95;71.97;99910.30;227745;1199;125552;-67
2021/10/23 06:22:05;;;;;;;2.60;2.40;;;;;;;6.05;71.78;99914.86;227348;1199;140627;-67
2021/10/23 06:27:25;;;;;;;5.70;3.40;;;;;;;6.06;71.86;99936.19;226909;1199;139930;-69
2021/10/23 06:32:31;;;;;;;5.60;4.30;;;;;;;6.04;71.76;99946.45;226997;1198;141756;-67
2021/10/23 06:37:35;;;;;;;10.70;5.30;;;;;;;6.03;71.94;99956.05;227773;1198;140471;-69
2021/10/23 06:43:10;;;;;;;4.60;3.90;;;;;;;6.05;72.25;99960.73;227566;1198;139784;-66
2021/10/23 06:48:15;;;;;;;5.00;3.40;;;;;;;6.14;72.26;99963.18;227711;1198;141179;-68
2021/10/23 06:53:28;;;;;;;10.00;4.20;;;;;;;6.20;71.80;99974.04;228002;1198;140513;-68
2021/10/23 06:58:32;;;;;;;13.60;5.40;;;;;;;6.20;71.84;99975.88;227671;1198;140307;-66
2021/10/23 07:03:55;;;;;;;5.60;2.70;;;;;;;6.23;71.76;99979.46;227017;1198;139289;-68
2021/10/23 07:09:21;;;;;;;11.80;4.60;;;;;;;6.28;71.83;99984.00;226376;1198;139437;-66
2021/10/23 07:14:26;;;;;;;8.70;3.50;;;;;;;6.33;71.93;99996.31;228925;1198;139429;-68
2021/10/23 07:19:40;;;;;;;7.50;3.50;;;;;;;6.35;71.71;100006.78;228011;1198;138888;-68
2021/10/23 07:24:54;;;;;;;4.40;3.20;;;;;;;6.39;71.64;100008.17;226999;1198;139937;-66
2021/10/23 07:30:06;;;;;;;5.00;3.40;;;;;;;6.39;71.36;100018.90;228184;1198;139578;-67
2021/10/23 07:35:17;;;;;;;7.00;2.90;;;;;;;6.47;71.59;100037.39;228326;1198;139329;-66
2021/10/23 07:40:31;;;;;;;4.00;3.60;;;;;;;6.55;71.62;100042.62;228305;1198;139784;-67
2021/10/23 07:45:36;;;;;;;6.50;3.80;;;;;;;6.60;71.42;100050.17;227406;1198;150010;-68
2021/10/23 07:51:07;;;;;;;10.30;3.50;;;;;;;6.62;71.77;100063.19;227060;1198;139782;-65
2021/10/23 07:56:12;;;;;;;5.80;3.00;;;;;;;6.70;71.55;100064.71;228311;1198;139729;-66
2021/10/23 08:01:17;;;;;;;10.00;3.20;;;;;;;6.74;71.41;100071.58;229204;1198;140434;-66
2021/10/23 08:06:25;;;;;;;4.20;3.80;;;;;;;6.76;70.92;100068.08;228104;1198;140714;-67
2021/10/23 08:11:30;;;;;;;7.40;3.60;;;;;;;6.80;71.13;100073.88;229164;1198;140520;-67
2021/10/23 08:16:58;;;;;;;24.00;6.70;;;;;;;6.86;70.79;100083.92;229185;1198;141448;-68
2021/10/23 08:22:34;;;;;;;8.10;4.30;;;;;;;6.86;71.17;100087.71;228273;1198;142375;-68
2021/10/23 08:27:51;;;;;;;11.00;4.40;;;;;;;6.92;71.21;100099.27;226589;1198;139253;-67
2021/10/23 08:34:02;;;;;;;11.20;3.60;;;;;;;6.93;70.96;100105.38;226104;1198;140914;-68
2021/10/23 08:39:19;;;;;;;;;;;;;;;;;;;;;
2021/10/23 08:44:29;;;;;;;9.60;4.60;;;;;;;6.99;71.03;100123.66;227197;1198;139592;-68
2021/10/23 08:50:01;;;;;;;8.40;3.70;;;;;;;7.03;70.98;100128.91;227201;1198;139244;-66
2021/10/23 08:55:16;;;;;;;15.00;5.60;;;;;;;7.11;70.44;100129.20;226695;1198;139063;-68
2021/10/23 09:00:42;;;;;;;12.10;3.40;;;;;;;7.19;70.55;100127.48;226601;1198;139590;-66
2021/10/23 09:05:57;;;;;;;10.90;4.20;;;;;;;7.34;70.93;100137.84;227333;1198;140299;-66
2021/10/23 09:11:02;;;;;;;3.90;2.60;;;;;;;7.54;70.72;100143.55;226888;1200;139878;-66
2021/10/23 09:16:34;;;;;;;;;;;;;;;;;;;;;
2021/10/23 09:21:55;;;;;;;10.00;4.50;;;;;;;7.68;70.11;100154.98;227389;1198;140837;-68
2021/10/23 09:27:24;;;;;;;6.30;4.80;;;;;;;7.67;70.00;100165.16;226314;1198;140722;-67
2021/10/23 09:32:38;;;;;;;6.10;3.80;;;;;;;7.69;70.32;100177.48;226201;1198;140149;-67
2021/10/23 09:38:07;;;;;;;;;;;;;;;;;;;;;
2021/10/23 09:43:23;;;;;;;9.50;4.10;;;;;;;7.95;70.03;100177.87;227253;1198;138729;-67
2021/10/23 09:48:57;;;;;;;6.40;3.40;;;;;;;8.13;69.98;100181.48;228215;1198;140044;-67
2021/10/23 09:54:26;;;;;;;4.90;2.60;;;;;;;8.28;69.38;100184.05;227031;1198;139588;-67
2021/10/23 09:59:38;;;;;;;7.70;3.10;;;;;;;8.28;69.01;100192.46;229232;1198;139864;-68
2021/10/23 10:04:43;;;;;;;6.70;3.30;;;;;;;8.25;68.83;100195.34;229180;1198;139126;-68
2021/10/23 10:09:53;;;;;;;9.30;5.00;;;;;;;8.24;68.67;100197.33;229382;1198;140187;-70
2021/10/23 10:15:14;;;;;;;8.90;4.40;;;;;;;8.24;68.74;100201.55;228229;1198;138673;-66
2021/10/23 10:20:47;;;;;;;11.60;3.60;;;;;;;8.20;68.68;100197.73;225987;1198;139030;-67
2021/10/23 10:26:29;;;;;;;13.10;4.60;;;;;;;8.21;68.69;100200.66;225954;1198;140247;-68
2021/10/23 10:32:43;;;;;;;5.30;3.20;;;;;;;8.33;68.95;100205.09;227659;1198;140527;-68
2021/10/23 10:44:27;;;;;;;9.90;4.10;;;;;;;8.76;68.36;100216.02;227701;1198;138874;-67
2021/10/23 10:50:48;;;;;;;14.80;3.10;;;;;;;8.91;68.29;100225.13;226318;1198;139451;-67
2021/10/23 10:56:18;;;;;;;7.80;4.80;;;;;;;9.07;67.91;100234.60;225841;1201;140105;-68
2021/10/23 11:01:29;;;;;;;6.10;1.60;;;;;;;9.01;67.54;100237.52;226641;1198;139340;-68
2021/10/23 11:07:05;;;;;;;;;;;;;;;;;;;;;
2021/10/23 11:12:27;;;;;;;;;;;;;;;;;;;;;
2021/10/23 11:17:52;;;;;;;;;;;;;;;;;;;;;
2021/10/23 11:23:03;;;;;;;4.90;2.50;;;;;;;8.94;66.70;100258.86;227404;1198;139403;-69
2021/10/23 11:28:18;;;;;;;2.70;2.00;;;;;;;9.15;66.51;100255.94;227094;1198;139635;-66
2021/10/23 11:33:29;;;;;;;6.60;2.50;;;;;;;9.19;66.07;100254.21;227188;1198;139083;-69
2021/10/23 11:38:55;;;;;;;5.80;3.60;;;;;;;9.07;65.78;100249.45;226111;1199;139252;-68
2021/10/23 11:44:40;;;;;;;7.90;3.30;;;;;;;9.00;65.41;100250.95;226014;1198;139785;-68
2021/10/23 11:50:09;;;;;;;11.10;2.60;;;;;;;9.35;65.49;100259.77;226304;1198;141321;-68
2021/10/23 11:55:27;;;;;;;2.20;2.10;;;;;;;9.62;65.30;100253.61;228930;1199;141532;-69
2021/10/23 12:00:37;;;;;;;;;;;;;;;10.01;65.30;100266.42;228991;1199;139700;-69
2021/10/23 12:06:10;;;;;;;7.20;2.10;;;;;;;10.15;64.60;100272.14;230111;1198;126797;-69
2021/10/23 12:11:17;;;;;;;10.40;3.80;;;;;;;10.17;63.82;100279.23;229192;1198;141393;-69
2021/10/23 12:16:49;;;;;;;1.90;1.80;;;;;;;10.08;63.63;100287.13;229200;1198;141372;-69
2021/10/23 12:22:19;;;;;;;5.50;2.40;;;;;;;10.04;63.62;100284.39;229336;1198;139405;-69
2021/10/23 12:28:11;;;;;;;6.00;2.70;;;;;;;10.00;63.43;100286.11;228402;1198;140042;-67
2021/10/23 12:33:29;;;;;;;9.30;2.30;;;;;;;9.98;63.32;100289.40;226560;1198;140543;-68
2021/10/23 12:38:50;;;;;;;;;;;;;;;;;;;;;
2021/10/23 12:44:29;;;;;;;;;;;;;;;;;;;;;
2021/10/23 12:49:52;;;;;;;;;;;;;;;;;;;;;
2021/10/23 12:55:12;;;;;;;11.70;4.00;;;;;;;9.47;63.73;100319.48;227198;1198;141249;-69
2021/10/23 13:00:18;;;;;;;24.80;10.00;;;;;;;9.36;63.62;100316.38;227770;1198;140226;-69
2021/10/23 13:05:30;;;;;;;8.40;4.50;;;;;;;9.34;63.98;100313.64;226351;1198;140620;-67
2021/10/23 13:10:58;;;;;;;4.90;2.20;;;;;;;9.37;64.06;100315.67;226417;1198;139657;-68
2021/10/23 13:16:28;;;;;;;11.20;3.60;;;;;;;9.37;63.92;100316.94;226405;1199;139494;-69
2021/10/23 13:21:57;;;;;;;9.70;2.70;;;;;;;9.61;63.94;100316.55;226819;1198;139753;-70
2021/10/23 13:27:46;;;;;;;5.10;1.90;;;;;;;9.57;63.65;100319.40;226253;1199;139559;-66
2021/10/23 13:32:59;;;;;;;6.70;2.90;;;;;;;9.48;63.44;100321.47;226794;1199;139318;-68
2021/10/23 13:38:18;;;;;;;6.60;3.60;;;;;;;9.36;63.50;100331.28;226452;1199;139335;-65
2021/10/23 13:43:23;;;;;;;11.90;2.80;;;;;;;9.31;63.57;100339.11;227948;1198;138581;-68
2021/10/23 13:48:55;;;;;;;8.20;2.70;;;;;;;9.31;63.66;100346.04;227185;1198;140336;-65
2021/10/23 13:54:03;;;;;;;7.20;2.80;;;;;;;9.30;63.59;100356.06;227832;1198;140746;-67
2021/10/23 13:59:31;;;;;;;2.20;1.30;;;;;;;9.28;63.36;100354.52;227037;1198;139563;-68
2021/10/23 14:04:38;;;;;;;6.40;2.60;;;;;;;9.23;63.12;100357.19;227815;1198;140339;-70
2021/10/23 14:10:17;;;;;;;4.00;1.60;;;;;;;9.21;63.21;100357.48;229028;1199;139801;-71
2021/10/23 14:15:21;;;;;;;3.10;2.20;;;;;;;9.15;63.12;100362.55;229128;1198;139419;-70
2021/10/23 14:21:15;;;;;;;5.40;2.00;;;;;;;9.09;63.16;100366.74;228967;1198;139066;-71
2021/10/23 14:26:22;;;;;;;7.50;2.60;;;;;;;9.08;63.22;100376.33;229056;1198;139981;-71
2021/10/23 14:32:08;;;;;;;5.30;2.70;;;;;;;9.08;63.13;100381.27;228087;1198;140850;-69
2021/10/23 14:37:54;;;;;;;7.70;2.40;;;;;;;9.09;63.41;100388.23;229123;1198;140949;-69
2021/10/23 14:43:17;;;;;;;6.00;2.60;;;;;;;9.00;63.37;100396.14;226274;1198;140888;-69
2021/10/23 14:49:07;;;;;;;8.10;2.50;;;;;;;8.92;63.53;100408.91;227184;1199;139075;-69
2021/10/23 14:54:07;;;;;;;9.70;3.70;;;;;;;8.76;63.65;100420.64;226922;1199;139621;-69
2021/10/23 14:59:14;;;;;;;8.90;2.80;;;;;;;8.66;63.80;100429.48;226184;1198;139445;-67
2021/10/23 15:04:41;;;;;;;7.80;2.80;;;;;;;8.60;63.83;100433.36;226071;1198;140351;-68
2021/10/23 15:10:15;;;;;;;;;;;;;;;;;;;;;
2021/10/23 15:15:19;;;;;;;6.90;3.20;;;;;;;8.27;64.16;100449.70;226957;1199;142084;-67
2021/10/23 15:20:38;;;;;;;;;;;;;;;;;;;;;
2021/10/23 15:26:10;;;;;;;;;;;;;;;8.01;64.64;100473.46;227353;1199;139066;-67
2021/10/23 15:31:28;;;;;;;6.60;2.40;;;;;;;7.87;64.81;100483.36;227232;1198;126941;-68
2021/10/23 15:37:32;;;;;;;6.40;2.50;;;;;;;7.81;65.22;100493.03;227244;1198;143522;-68
2021/10/23 15:42:49;;;;;;;;;;;;;;;;;;;;;
2021/10/23 15:48:25;;;;;;;;;;;;;;;;;;;;;
2021/10/23 15:53:36;;;;;;;;;;;;;;;;;;;;;
2021/10/23 15:58:50;;;;;;;19.40;15.00;;;;;;;7.69;66.02;100527.15;227672;1198;142932;-66
2021/10/23 16:03:55;;;;;;;3.90;3.20;;;;;;;7.69;66.11;100536.88;227777;1198;140364;-68
2021/10/23 16:09:02;;;;;;;11.00;3.70;;;;;;;7.68;66.05;100546.16;229266;1198;140175;-68
2021/10/23 16:14:06;;;;;;;5.30;2.50;;;;;;;7.66;66.75;100565.14;229086;1198;139625;-69
2021/10/23 16:19:14;;;;;;;11.70;4.40;;;;;;;7.65;66.79;100577.95;229041;1199;139661;-70
2021/10/23 16:24:31;;;;;;;8.10;4.40;;;;;;;7.68;67.56;100585.85;228901;1198;140090;-71
2021/10/23 16:29:35;;;;;;;12.30;4.10;;;;;;;7.68;67.75;100600.88;228649;1199;139800;-69
2021/10/23 16:34:49;;;;;;;8.70;4.30;;;;;;;7.64;68.45;100617.84;225712;1199;158177;-68
2021/10/23 16:39:55;;;;;;;26.00;6.30;;;;;;;7.58;68.88;100624.38;228263;1200;139254;-69
2021/10/23 16:45:04;;;;;;;14.00;4.50;;;;;;;7.52;69.15;100637.67;228108;1199;140967;-68
2021/10/23 16:50:09;;;;;;;12.70;4.90;;;;;;;7.49;69.35;100632.39;226662;1200;141137;-69
2021/10/23 16:55:16;;;;;;;12.30;5.20;;;;;;;7.45;69.80;100640.15;228152;1200;141742;-69
2021/10/23 17:00:21;;;;;;;16.10;7.00;;;;;;;7.39;70.08;100647.20;226118;1200;140595;-70
2021/10/23 17:05:28;;;;;;;19.70;7.00;;;;;;;7.29;70.25;100658.48;226035;1199;141847;-69
2021/10/23 17:10:32;;;;;;;10.00;3.70;;;;;;;7.16;70.19;100671.23;226058;1200;142248;-68
2021/10/23 17:15:46;;;;;;;16.00;5.10;;;;;;;7.07;70.38;100674.78;226373;1199;140773;-69
2021/10/23 17:20:53;;;;;;;22.90;8.60;;;;;;;6.93;70.47;100689.61;227291;1200;140152;-70
2021/10/23 17:26:15;;;;;;;;;;;;;;;;;;;;;
2021/10/23 17:31:36;;;;;;;11.50;6.80;;;;;;;6.63;70.71;100715.33;226149;1200;141070;-68
2021/10/23 17:36:52;;;;;;;21.50;9.00;;;;;;;6.49;70.76;100719.92;226538;1200;141097;-69
2021/10/23 17:42:18;;;;;;;8.60;4.30;;;;;;;6.41;71.22;100727.51;226169;1198;140668;-69
2021/10/23 17:47:47;;;;;;;;;;;;;;;;;;;;;
2021/10/23 17:53:24;;;;;;;10.50;5.00;;;;;;;6.18;71.81;100736.29;226913;1195;138844;-68
2021/10/23 17:58:54;;;;;;;;;;;;;;;;;;;;;
2021/10/23 18:04:01;;;;;;;7.70;3.70;;;;;;;6.10;72.33;100750.64;227967;1198;140627;-68
2021/10/23 18:09:15;;;;;;;13.10;3.70;;;;;;;6.04;72.61;100758.23;226049;1199;139941;-67
2021/10/23 18:14:21;;;;;;;10.00;4.20;;;;;;;5.97;72.81;100770.06;228665;1192;139543;-68
2021/10/23 18:19:31;;;;;;;8.50;4.50;;;;;;;5.96;72.92;100778.96;228942;1198;140539;-68
2021/10/23 18:24:50;;;;;;;5.70;3.50;;;;;;;6.03;73.14;100781.98;226295;1198;139829;-68
2021/10/23 18:30:15;;;;;;;8.70;3.60;;;;;;;6.07;73.03;100790.19;226029;1200;140461;-68
2021/10/23 18:35:20;;;;;;;5.50;2.60;;;;;;;6.08;73.18;100801.58;228415;1198;141027;-68
2021/10/23 18:40:26;;;;;;;5.60;3.60;;;;;;;6.05;73.33;100805.19;229070;1199;139403;-68
2021/10/23 18:45:37;;;;;;;4.40;2.40;;;;;;;6.10;73.09;100810.11;227703;1198;140509;-68
2021/10/23 18:50:49;;;;;;;5.80;2.90;;;;;;;6.16;73.09;100811.48;226772;1198;139833;-69
2021/10/23 18:56:13;;;;;;;12.80;4.50;;;;;;;6.19;72.91;100819.45;226264;1198;229825;-68
2021/10/23 19:01:34;;;;;;;5.80;3.20;;;;;;;6.17;73.29;100828.56;226025;1198;142076;-68
2021/10/23 19:07:20;;;;;;;6.50;3.10;;;;;;;6.12;73.17;100837.84;226707;1199;138586;-68
2021/10/23 19:12:28;;;;;;;13.20;4.20;;;;;;;6.05;73.25;100840.00;227222;1184;139843;-68
2021/10/23 19:17:42;;;;;;;9.30;4.70;;;;;;;6.01;73.17;100849.79;227281;1198;141525;-68
2021/10/23 19:23:21;;;;;;;;;;;;;;;;;;;;;
2021/10/23 19:28:49;;;;;;;5.30;3.40;;;;;;;5.94;73.19;100860.77;226990;1198;139232;-68
2021/10/23 19:34:08;;;;;;;13.30;3.60;;;;;;;5.89;73.23;100866.08;226421;1199;139798;-68
2021/10/23 19:39:29;;;;;;;;;;;;;;;;;;;;;
2021/10/23 19:44:41;;;;;;;11.50;3.10;;;;;;;5.75;73.04;100883.20;227030;1199;128604;-67
2021/10/23 19:50:00;;;;;;;6.00;2.50;;;;;;;5.68;73.29;100885.22;227016;1199;140013;-68
2021/10/23 19:55:08;;;;;;;;;;;;;;;5.60;73.33;100883.93;226114;1198;139210;-68
2021/10/23 20:00:17;;;;;;;8.80;3.20;;;;;;;5.50;73.76;100890.29;227436;1198;125462;-68
2021/10/23 20:05:59;;;;;;;7.20;4.30;;;;;;;5.47;73.72;100893.98;227036;1198;139980;-68
2021/10/23 20:11:09;;;;;;;6.00;3.20;;;;;;;5.45;73.84;100899.80;227471;1200;139493;-68
2021/10/23 20:16:28;;;;;;;12.50;3.50;;;;;;;5.42;73.86;100905.14;226273;1198;141715;-68
2021/10/23 20:22:25;;;;;;;5.90;3.20;;;;;;;5.39;74.11;100910.77;226314;1198;139656;-67
2021/10/23 20:27:53;;;;;;;;;;;;;;;;;;;;;
2021/10/23 20:33:07;;;;;;;13.30;4.20;;;;;;;5.43;74.22;100930.02;228819;1199;142598;-70
2021/10/23 20:38:19;;;;;;;7.30;4.00;;;;;;;5.46;74.21;100937.15;227483;1198;141574;-67
2021/10/23 20:43:31;;;;;;;9.90;4.00;;;;;;;5.43;74.34;100942.35;228255;1198;141300;-68
2021/10/23 20:48:37;;;;;;;10.00;4.30;;;;;;;5.45;74.66;100950.80;228377;1198;139903;-67
2021/10/23 20:54:03;;;;;;;12.90;4.80;;;;;;;5.42;74.38;100962.55;228188;1198;140305;-70
2021/10/23 20:59:29;;;;;;;;;;;;;;;;;;;;;
2021/10/23 21:04:54;;;;;;;12.60;5.40;;;;;;;5.44;75.08;100973.48;226217;1198;139466;-68
2021/10/23 21:10:21;;;;;;;;;;;;;;;;;;;;;
2021/10/23 21:15:30;;;;;;;22.50;10.00;;;;;;;5.45;74.70;100990.88;225864;1198;140381;-68
2021/10/23 21:20:37;;;;;;;20.30;7.50;;;;;;;5.42;74.78;100998.12;226772;1198;140656;-67
2021/10/23 21:26:07;;;;;;;14.30;7.10;;;;;;;5.36;74.69;101002.72;227373;1200;139152;-68
2021/10/23 21:31:26;;;;;;;;;;;;;;;;;;;;;
2021/10/23 21:36:46;;;;;;;;;;;;;;;;;;;;;
2021/10/23 21:41:56;;;;;;;12.30;4.90;;;;;;;5.16;74.92;101013.92;226599;1198;141614;-66
2021/10/23 21:47:20;;;;;;;15.90;5.10;;;;;;;5.05;74.57;101023.61;226615;1198;139728;-67
2021/10/23 21:53:01;;;;;;;16.00;5.80;;;;;;;4.92;74.62;101020.70;226934;1198;139812;-67
2021/10/23 21:58:12;;;;;;;7.60;5.20;;;;;;;4.81;74.48;101014.26;226168;1198;139444;-66
2021/10/23 22:03:31;;;;;;;12.40;5.00;;;;;;;4.71;74.54;101021.84;226236;1198;140141;-67
2021/10/23 22:09:08;;;;;;;9.70;5.10;;;;;;;4.57;74.54;101037.66;227314;1198;140202;-66
2021/10/23 22:14:14;;;;;;;9.70;5.20;;;;;;;4.46;74.65;101040.78;226020;1198;161208;-67
2021/10/23 22:19:36;;;;;;;15.90;6.40;;;;;;;4.39;74.81;101044.13;225969;1198;142221;-67
2021/10/23 22:24:49;;;;;;;9.50;4.60;;;;;;;4.37;74.78;101043.98;226436;1198;140800;-67
2021/10/23 22:30:04;;;;;;;8.50;4.40;;;;;;;4.34;75.04;101046.92;228397;1198;141107;-67
2021/10/23 22:35:11;;;;;;;10.20;5.70;;;;;;;4.30;75.00;101053.15;229261;1198;139545;-68
2021/10/23 22:40:37;;;;;;;;;;;;;;;4.23;75.04;101056.23;229315;1198;139372;-69
2021/10/23 22:45:54;;;;;;;14.00;6.30;;;;;;;4.19;75.23;101056.60;226895;1198;129332;-66
2021/10/23 22:51:00;;;;;;;11.90;5.60;;;;;;;4.19;75.23;101064.70;227430;1198;140174;-67
2021/10/23 22:56:06;;;;;;;11.70;7.00;;;;;;;4.20;75.43;101073.41;227871;1198;141657;-67
2021/10/23 23:01:14;;;;;;;19.40;8.20;;;;;;;4.13;75.23;101072.81;226146;1198;140815;-66
2021/10/23 23:06:48;;;;;;;11.70;5.10;;;;;;;4.00;75.21;101071.64;226868;1198;141407;-67
2021/10/23 23:12:06;;;;;;;12.70;5.60;;;;;;;3.89;75.14;101080.52;227767;1198;140312;-67
2021/10/23 23:17:22;;;;;;;;;;;;;;;;;;;;;
2021/10/23 23:23:00;;;;;;;10.60;4.60;;;;;;;3.86;75.63;101096.71;227254;1198;139321;-66
2021/10/23 23:28:32;;;;;;;11.40;6.00;;;;;;;3.79;75.34;101103.73;226772;1198;138756;-67
2021/10/23 23:33:51;;;;;;;;;;;;;;;;;;;;;
2021/10/23 23:39:14;;;;;;;10.50;5.80;;;;;;;3.80;75.75;101111.58;227055;1198;140925;-67
2021/10/23 23:44:26;;;;;;;12.80;5.30;;;;;;;3.82;75.93;101118.23;226262;1198;139767;-66
2021/10/23 23:49:40;;;;;;;7.10;4.10;;;;;;;3.77;75.85;101124.49;226456;1200;142923;-66
2021/10/23 23:54:59;;;;;;;8.90;5.50;;;;;;;3.65;75.65;101129.34;227125;1198;139243;-67
